createdAt,value
2023-01-08T00:00:00.594Z,986.96
2023-01-08T00:01:00.632Z,986.95
2023-01-08T00:02:00.470Z,986.89
2023-01-08T00:03:00.531Z,986.97
2023-01-08T00:04:00.417Z,986.97
2023-01-08T00:05:00.243Z,986.95
2023-01-08T00:06:00.215Z,986.96
2023-01-08T00:07:00.152Z,987.00
2023-01-08T00:08:00.136Z,987.01
2023-01-08T00:08:59.985Z,987.01
2023-01-08T00:09:59.924Z,987.01
2023-01-08T00:11:00.398Z,986.95
2023-01-08T00:11:59.800Z,986.96
2023-01-08T00:12:59.706Z,986.93
2023-01-08T00:13:59.675Z,986.86
2023-01-08T00:14:59.685Z,986.87
2023-01-08T00:15:59.549Z,986.88
2023-01-08T00:16:59.635Z,986.85
2023-01-08T00:17:59.424Z,986.73
2023-01-08T00:18:59.388Z,986.80
2023-01-08T00:19:59.328Z,986.76
2023-01-08T00:20:59.236Z,986.70
2023-01-08T00:21:59.161Z,986.57
2023-01-08T00:22:59.156Z,986.57
2023-01-08T00:23:59.010Z,986.60
2023-01-08T00:24:59.059Z,986.57
2023-01-08T00:25:58.908Z,986.57
2023-01-08T00:26:58.891Z,986.62
2023-01-08T00:27:58.816Z,986.60
2023-01-08T00:28:58.727Z,986.56
2023-01-08T00:29:58.699Z,986.63
2023-01-08T00:30:58.758Z,986.58
2023-01-08T00:31:58.562Z,986.58
2023-01-08T00:32:58.507Z,986.62
2023-01-08T00:33:58.412Z,986.60
2023-01-08T00:34:58.350Z,986.66
2023-01-08T00:35:58.291Z,986.62
2023-01-08T00:36:58.850Z,986.61
2023-01-08T00:37:58.161Z,986.65
2023-01-08T00:38:58.124Z,986.67
2023-01-08T00:39:58.009Z,986.64
2023-01-08T00:40:57.987Z,986.62
2023-01-08T00:41:57.905Z,986.61
2023-01-08T00:42:57.851Z,986.61
2023-01-08T00:43:57.775Z,986.57
2023-01-08T00:44:57.740Z,986.54
2023-01-08T00:45:57.725Z,986.44
2023-01-08T00:46:57.589Z,986.42
2023-01-08T00:47:57.507Z,986.37
2023-01-08T00:48:57.494Z,986.37
2023-01-08T00:49:57.400Z,986.38
2023-01-08T00:50:57.344Z,986.39
2023-01-08T00:51:57.291Z,986.36
2023-01-08T00:52:57.208Z,986.34
2023-01-08T00:53:57.171Z,986.40
2023-01-08T00:54:57.127Z,986.37
2023-01-08T00:55:57.035Z,986.37
2023-01-08T00:56:56.954Z,986.37
2023-01-08T00:57:56.905Z,986.33
2023-01-08T00:58:56.856Z,986.28
2023-01-08T00:59:56.762Z,986.29
2023-01-08T01:01:17.847Z,986.26
2023-01-08T01:01:56.887Z,986.30
2023-01-08T01:02:56.600Z,986.27
2023-01-08T01:03:56.573Z,986.29
2023-01-08T01:04:56.472Z,986.35
2023-01-08T01:05:56.411Z,986.35
2023-01-08T01:06:56.370Z,986.32
2023-01-08T01:07:56.315Z,986.31
2023-01-08T01:08:56.218Z,986.29
2023-01-08T01:09:56.125Z,986.26
2023-01-08T01:10:56.059Z,986.14
2023-01-08T01:11:56.063Z,986.21
2023-01-08T01:12:55.980Z,986.15
2023-01-08T01:13:55.909Z,986.22
2023-01-08T01:14:55.786Z,986.20
2023-01-08T01:15:55.817Z,986.19
2023-01-08T01:16:55.760Z,986.12
2023-01-08T01:17:55.686Z,986.12
2023-01-08T01:18:55.603Z,986.01
2023-01-08T01:19:55.519Z,986.05
2023-01-08T01:20:55.435Z,985.96
2023-01-08T01:21:55.363Z,985.92
2023-01-08T01:22:55.321Z,985.95
2023-01-08T01:23:55.248Z,985.98
2023-01-08T01:24:55.185Z,985.98
2023-01-08T01:25:55.110Z,986.07
2023-01-08T01:26:55.068Z,986.06
2023-01-08T01:27:54.995Z,986.06
2023-01-08T01:28:54.962Z,986.06
2023-01-08T01:29:54.885Z,985.97
2023-01-08T01:30:54.928Z,986.04
2023-01-08T01:31:54.792Z,986.00
2023-01-08T01:32:54.668Z,986.11
2023-01-08T01:33:54.632Z,986.16
2023-01-08T01:34:54.565Z,986.11
2023-01-08T01:35:54.457Z,986.09
2023-01-08T01:36:54.402Z,986.18
2023-01-08T01:37:54.341Z,986.15
2023-01-08T01:38:54.365Z,986.14
2023-01-08T01:39:54.223Z,986.20
2023-01-08T01:40:54.197Z,986.11
2023-01-08T01:41:54.104Z,986.11
2023-01-08T01:42:54.030Z,986.13
2023-01-08T01:43:53.948Z,986.19
2023-01-08T01:44:53.903Z,986.13
2023-01-08T01:45:53.873Z,986.10
2023-01-08T01:46:53.840Z,986.10
2023-01-08T01:47:53.715Z,986.14
2023-01-08T01:48:53.654Z,986.10
2023-01-08T01:49:53.587Z,986.15
2023-01-08T01:50:53.553Z,986.15
2023-01-08T01:51:53.458Z,986.15
2023-01-08T01:52:53.394Z,986.16
2023-01-08T01:53:53.319Z,986.18
2023-01-08T01:54:53.312Z,986.28
2023-01-08T01:55:53.240Z,986.21
2023-01-08T01:56:53.178Z,986.23
2023-01-08T01:57:53.081Z,986.20
2023-01-08T01:58:53.074Z,986.29
2023-01-08T01:59:52.982Z,986.22
2023-01-08T02:03:11.397Z,986.17
2023-01-08T02:04:12.405Z,986.09
2023-01-08T02:05:12.233Z,986.10
2023-01-08T02:06:12.148Z,986.15
2023-01-08T02:07:12.167Z,986.12
2023-01-08T02:08:12.042Z,986.17
2023-01-08T02:09:12.014Z,986.17
2023-01-08T02:10:11.948Z,986.20
2023-01-08T02:11:11.874Z,986.15
2023-01-08T02:12:11.793Z,986.16
2023-01-08T02:13:11.787Z,986.21
2023-01-08T02:15:20.916Z,986.21
2023-01-08T02:16:21.854Z,986.17
2023-01-08T02:17:21.830Z,986.24
2023-01-08T02:18:21.706Z,986.31
2023-01-08T02:19:21.669Z,986.23
2023-01-08T02:20:21.622Z,986.33
2023-01-08T02:21:21.510Z,986.31
2023-01-08T02:22:21.472Z,986.30
2023-01-08T02:23:21.384Z,986.29
2023-01-08T02:24:21.402Z,986.28
2023-01-08T02:25:21.317Z,986.28
2023-01-08T02:26:21.207Z,986.29
2023-01-08T02:27:21.086Z,986.30
2023-01-08T02:28:21.016Z,986.25
2023-01-08T02:29:20.980Z,986.25
2023-01-08T02:30:20.916Z,986.24
2023-01-08T02:31:20.958Z,986.21
2023-01-08T02:32:41.817Z,986.26
2023-01-08T02:33:20.789Z,986.27
2023-01-08T02:34:20.666Z,986.25
2023-01-08T02:35:20.573Z,986.28
2023-01-08T02:36:20.540Z,986.34
2023-01-08T02:37:20.449Z,986.27
2023-01-08T02:38:20.487Z,986.35
2023-01-08T02:39:20.380Z,986.36
2023-01-08T02:40:20.346Z,986.34
2023-01-08T02:41:20.253Z,986.34
2023-01-08T02:42:20.251Z,986.29
2023-01-08T02:43:20.152Z,986.30
2023-01-08T02:44:20.132Z,986.24
2023-01-08T02:45:20.082Z,986.30
2023-01-08T02:46:20.001Z,986.30
2023-01-08T02:47:19.904Z,986.20
2023-01-08T02:48:19.801Z,986.18
2023-01-08T02:49:19.776Z,986.22
2023-01-08T02:50:19.759Z,986.19
2023-01-08T02:51:19.619Z,986.22
2023-01-08T02:52:19.584Z,986.12
2023-01-08T02:53:19.438Z,986.07
2023-01-08T02:54:19.461Z,986.09
2023-01-08T02:55:19.433Z,986.12
2023-01-08T02:56:19.351Z,986.07
2023-01-08T02:57:19.303Z,986.04
2023-01-08T02:58:19.217Z,986.05
2023-01-08T02:59:19.119Z,986.01
2023-01-08T03:00:19.096Z,986.00
2023-01-08T03:01:19.190Z,986.00
2023-01-08T03:02:19.083Z,986.04
2023-01-08T03:03:18.869Z,985.99
2023-01-08T03:04:18.834Z,986.03
2023-01-08T03:05:18.775Z,986.03
2023-01-08T03:06:18.700Z,986.02
2023-01-08T03:07:18.611Z,985.96
2023-01-08T03:08:18.631Z,985.95
2023-01-08T03:09:18.520Z,985.91
2023-01-08T03:10:18.396Z,985.96
2023-01-08T03:11:18.389Z,985.98
2023-01-08T03:12:18.326Z,985.96
2023-01-08T03:13:18.288Z,985.96
2023-01-08T03:14:18.173Z,985.94
2023-01-08T03:15:18.131Z,985.98
2023-01-08T03:16:18.143Z,986.00
2023-01-08T03:17:17.986Z,985.92
2023-01-08T03:18:17.952Z,985.99
2023-01-08T03:19:17.835Z,985.96
2023-01-08T03:20:17.807Z,986.00
2023-01-08T03:21:17.759Z,985.94
2023-01-08T03:22:17.694Z,985.93
2023-01-08T03:23:17.590Z,985.92
2023-01-08T03:24:17.537Z,986.00
2023-01-08T03:25:17.517Z,985.94
2023-01-08T03:26:17.465Z,985.97
2023-01-08T03:27:17.389Z,985.94
2023-01-08T03:28:17.300Z,985.98
2023-01-08T03:29:17.250Z,985.96
2023-01-08T03:30:17.198Z,985.97
2023-01-08T03:31:17.218Z,985.98
2023-01-08T03:32:17.100Z,985.95
2023-01-08T03:33:17.002Z,985.94
2023-01-08T03:34:16.950Z,985.92
2023-01-08T03:35:16.845Z,985.90
2023-01-08T03:36:16.816Z,985.84
2023-01-08T03:37:16.757Z,985.83
2023-01-08T03:38:16.657Z,985.86
2023-01-08T03:39:16.598Z,985.83
2023-01-08T03:40:16.620Z,985.84
2023-01-08T03:41:16.475Z,985.83
2023-01-08T03:42:16.417Z,985.83
2023-01-08T03:43:16.385Z,985.83
2023-01-08T03:45:55.283Z,985.82
2023-01-08T03:46:56.211Z,985.83
2023-01-08T03:47:56.211Z,985.82
2023-01-08T03:48:56.125Z,985.77
2023-01-08T03:49:56.047Z,985.84
2023-01-08T03:50:56.006Z,985.86
2023-01-08T03:51:55.891Z,985.82
2023-01-08T03:53:16.855Z,985.84
2023-01-08T03:53:55.792Z,985.84
2023-01-08T03:54:55.713Z,985.82
2023-01-08T03:55:55.668Z,985.75
2023-01-08T03:56:55.656Z,985.72
2023-01-08T03:57:55.568Z,985.80
2023-01-08T03:58:55.448Z,985.80
2023-01-08T03:59:55.412Z,985.82
2023-01-08T04:00:55.350Z,985.78
2023-01-08T04:01:55.461Z,985.81
2023-01-08T04:03:16.152Z,985.81
2023-01-08T04:03:55.165Z,985.80
2023-01-08T04:04:55.059Z,985.79
2023-01-08T04:05:55.046Z,985.72
2023-01-08T04:06:54.945Z,985.68
2023-01-08T04:07:54.887Z,985.69
2023-01-08T04:08:54.867Z,985.70
2023-01-08T04:09:54.757Z,985.75
2023-01-08T04:10:54.716Z,985.75
2023-01-08T04:11:54.625Z,985.70
2023-01-08T04:12:54.627Z,985.68
2023-01-08T04:13:54.526Z,985.71
2023-01-08T04:14:54.458Z,985.67
2023-01-08T04:15:54.438Z,985.68
2023-01-08T04:16:54.363Z,985.63
2023-01-08T04:17:54.258Z,985.61
2023-01-08T04:18:54.158Z,985.59
2023-01-08T04:19:54.121Z,985.56
2023-01-08T04:20:54.091Z,985.56
2023-01-08T04:21:54.026Z,985.58
2023-01-08T04:22:53.957Z,985.52
2023-01-08T04:23:53.894Z,985.49
2023-01-08T04:24:53.823Z,985.49
2023-01-08T04:25:53.762Z,985.52
2023-01-08T04:26:53.723Z,985.52
2023-01-08T04:27:53.634Z,985.50
2023-01-08T04:28:53.545Z,985.48
2023-01-08T04:29:53.509Z,985.51
2023-01-08T04:30:53.569Z,985.46
2023-01-08T04:31:53.359Z,985.48
2023-01-08T04:32:53.330Z,985.47
2023-01-08T04:33:53.233Z,985.48
2023-01-08T04:34:53.183Z,985.43
2023-01-08T04:35:53.129Z,985.43
2023-01-08T04:36:53.018Z,985.43
2023-01-08T04:37:53.046Z,985.39
2023-01-08T04:40:32.429Z,985.38
2023-01-08T04:41:33.346Z,985.35
2023-01-08T04:42:33.341Z,985.32
2023-01-08T04:43:33.284Z,985.30
2023-01-08T04:44:33.179Z,985.34
2023-01-08T04:45:33.105Z,985.32
2023-01-08T04:46:33.041Z,985.33
2023-01-08T04:47:32.956Z,985.31
2023-01-08T04:48:32.930Z,985.33
2023-01-08T04:49:32.844Z,985.38
2023-01-08T04:50:32.781Z,985.40
2023-01-08T04:51:32.786Z,985.40
2023-01-08T04:52:32.707Z,985.39
2023-01-08T04:53:32.614Z,985.36
2023-01-08T04:54:32.512Z,985.34
2023-01-08T04:55:32.485Z,985.30
2023-01-08T04:56:32.451Z,985.34
2023-01-08T04:57:32.343Z,985.31
2023-01-08T04:58:32.293Z,985.24
2023-01-08T04:59:32.200Z,985.24
2023-01-08T05:00:32.172Z,985.17
2023-01-08T05:01:32.270Z,985.17
2023-01-08T05:02:32.302Z,985.16
2023-01-08T05:03:32.055Z,985.13
2023-01-08T05:04:31.916Z,985.09
2023-01-08T05:05:31.851Z,985.11
2023-01-08T05:06:31.784Z,985.08
2023-01-08T05:07:31.690Z,985.11
2023-01-08T05:08:31.700Z,985.06
2023-01-08T05:09:31.623Z,985.07
2023-01-08T05:10:31.571Z,985.07
2023-01-08T05:11:31.477Z,985.09
2023-01-08T05:12:31.467Z,985.03
2023-01-08T05:13:31.340Z,985.05
2023-01-08T05:14:31.288Z,985.05
2023-01-08T05:16:40.417Z,985.03
2023-01-08T05:17:41.422Z,985.02
2023-01-08T05:18:41.323Z,984.98
2023-01-08T05:19:41.227Z,985.02
2023-01-08T05:20:41.194Z,984.98
2023-01-08T05:21:41.113Z,984.98
2023-01-08T05:22:41.036Z,985.01
2023-01-08T05:23:41.053Z,985.01
2023-01-08T05:24:40.948Z,984.97
2023-01-08T05:25:40.885Z,984.98
2023-01-08T05:26:40.820Z,984.98
2023-01-08T05:27:40.724Z,984.99
2023-01-08T05:28:40.655Z,984.97
2023-01-08T05:29:40.599Z,984.95
2023-01-08T05:30:40.555Z,984.94
2023-01-08T05:31:40.503Z,984.95
2023-01-08T05:32:40.481Z,984.91
2023-01-08T05:33:40.355Z,984.97
2023-01-08T05:34:40.322Z,984.91
2023-01-08T05:35:40.245Z,984.92
2023-01-08T05:36:40.140Z,984.90
2023-01-08T05:37:40.165Z,984.95
2023-01-08T05:38:40.101Z,984.88
2023-01-08T05:39:40.020Z,984.86
2023-01-08T05:40:39.985Z,984.90
2023-01-08T05:41:39.842Z,984.88
2023-01-08T05:42:39.776Z,984.89
2023-01-08T05:43:39.693Z,984.92
2023-01-08T05:44:39.691Z,984.82
2023-01-08T05:45:39.649Z,984.82
2023-01-08T05:46:39.652Z,984.81
2023-01-08T05:47:39.445Z,984.79
2023-01-08T05:48:39.439Z,984.79
2023-01-08T05:49:39.411Z,984.80
2023-01-08T05:50:39.308Z,984.82
2023-01-08T05:52:00.215Z,984.77
2023-01-08T05:52:39.189Z,984.77
2023-01-08T05:53:39.124Z,984.77
2023-01-08T05:54:39.056Z,984.80
2023-01-08T05:55:38.990Z,984.78
2023-01-08T05:56:38.896Z,984.75
2023-01-08T05:57:38.881Z,984.69
2023-01-08T05:58:38.776Z,984.69
2023-01-08T05:59:38.734Z,984.73
2023-01-08T06:00:38.683Z,984.72
2023-01-08T06:01:38.656Z,984.71
2023-01-08T06:02:38.604Z,984.74
2023-01-08T06:03:38.501Z,984.71
2023-01-08T06:04:38.512Z,984.75
2023-01-08T06:05:38.391Z,984.76
2023-01-08T06:06:38.274Z,984.77
2023-01-08T06:07:38.258Z,984.73
2023-01-08T06:08:38.195Z,984.77
2023-01-08T06:09:59.097Z,984.74
2023-01-08T06:10:38.017Z,984.78
2023-01-08T06:11:37.988Z,984.75
2023-01-08T06:12:37.915Z,984.76
2023-01-08T06:13:38.010Z,984.77
2023-01-08T06:14:37.796Z,984.77
2023-01-08T06:15:37.835Z,984.77
2023-01-08T06:16:37.642Z,984.76
2023-01-08T06:17:37.560Z,984.78
2023-01-08T06:18:37.493Z,984.79
2023-01-08T06:19:37.478Z,984.82
2023-01-08T06:20:37.411Z,984.80
2023-01-08T06:21:37.365Z,984.78
2023-01-08T06:22:37.262Z,984.78
2023-01-08T06:23:37.196Z,984.80
2023-01-08T06:24:37.133Z,984.78
2023-01-08T06:25:37.139Z,984.78
2023-01-08T06:26:37.016Z,984.74
2023-01-08T06:31:04.749Z,984.75
2023-01-08T06:32:05.615Z,984.75
2023-01-08T06:33:05.563Z,984.77
2023-01-08T06:34:05.528Z,984.75
2023-01-08T06:35:05.420Z,984.79
2023-01-08T06:36:05.370Z,984.78
2023-01-08T06:37:05.273Z,984.80
2023-01-08T06:38:05.262Z,984.77
2023-01-08T06:39:05.095Z,984.75
2023-01-08T06:40:05.031Z,984.75
2023-01-08T06:41:05.032Z,984.80
2023-01-08T06:42:05.035Z,984.76
2023-01-08T06:43:04.934Z,984.79
2023-01-08T06:44:04.797Z,984.83
2023-01-08T06:45:04.767Z,984.81
2023-01-08T06:46:04.818Z,984.84
2023-01-08T06:47:04.704Z,984.80
2023-01-08T06:50:23.060Z,984.83
2023-01-08T06:51:23.952Z,984.83
2023-01-08T06:52:23.945Z,984.81
2023-01-08T06:53:23.812Z,984.83
2023-01-08T06:54:23.817Z,984.88
2023-01-08T06:55:23.704Z,984.85
2023-01-08T06:56:23.696Z,984.85
2023-01-08T06:57:23.626Z,984.83
2023-01-08T06:58:23.493Z,984.83
2023-01-08T06:59:23.547Z,984.84
2023-01-08T07:00:23.369Z,984.88
2023-01-08T07:01:23.510Z,984.84
2023-01-08T07:02:25.512Z,984.84
2023-01-08T07:03:23.242Z,984.84
2023-01-08T07:04:23.113Z,984.82
2023-01-08T07:05:23.050Z,984.84
2023-01-08T07:06:23.002Z,984.85
2023-01-08T07:07:43.899Z,984.83
2023-01-08T07:08:22.873Z,984.85
2023-01-08T07:09:22.770Z,984.88
2023-01-08T07:10:22.695Z,984.86
2023-01-08T07:11:22.639Z,984.86
2023-01-08T07:12:22.569Z,984.86
2023-01-08T07:13:22.582Z,984.84
2023-01-08T07:14:22.419Z,984.91
2023-01-08T07:15:22.421Z,984.91
2023-01-08T07:16:22.417Z,984.95
2023-01-08T07:17:22.293Z,984.98
2023-01-08T07:18:22.244Z,984.90
2023-01-08T07:19:22.185Z,984.93
2023-01-08T07:20:22.105Z,984.95
2023-01-08T07:21:22.008Z,984.94
2023-01-08T07:22:21.971Z,984.98
2023-01-08T07:23:21.935Z,984.97
2023-01-08T07:24:21.853Z,985.03
2023-01-08T07:28:00.222Z,984.89
2023-01-08T07:29:01.083Z,984.96
2023-01-08T07:30:01.014Z,984.88
2023-01-08T07:31:00.999Z,984.88
2023-01-08T07:32:01.210Z,984.90
2023-01-08T07:33:00.885Z,984.91
2023-01-08T07:34:00.796Z,984.89
2023-01-08T07:35:00.678Z,984.84
2023-01-08T07:36:00.736Z,984.85
2023-01-08T07:37:00.552Z,984.80
2023-01-08T07:38:00.558Z,984.84
2023-01-08T07:39:00.471Z,984.87
2023-01-08T07:40:00.455Z,984.82
2023-01-08T07:41:00.326Z,984.78
2023-01-08T07:42:00.344Z,984.80
2023-01-08T07:43:00.198Z,984.76
2023-01-08T07:44:00.110Z,984.73
2023-01-08T07:45:00.127Z,984.78
2023-01-08T07:45:59.999Z,984.73
2023-01-08T07:46:59.951Z,984.74
2023-01-08T07:47:59.916Z,984.71
2023-01-08T07:48:59.862Z,984.72
2023-01-08T07:49:59.802Z,984.73
2023-01-08T07:50:59.699Z,984.75
2023-01-08T07:51:59.661Z,984.72
2023-01-08T07:52:59.655Z,984.70
2023-01-08T07:53:59.489Z,984.70
2023-01-08T07:54:59.509Z,984.74
2023-01-08T07:55:59.406Z,984.76
2023-01-08T07:56:59.357Z,984.79
2023-01-08T07:57:59.292Z,984.79
2023-01-08T07:58:59.210Z,984.74
2023-01-08T07:59:59.155Z,984.76
2023-01-08T08:00:59.444Z,984.79
2023-01-08T08:01:59.177Z,984.84
2023-01-08T08:02:59.186Z,984.88
2023-01-08T08:03:58.903Z,984.94
2023-01-08T08:04:58.836Z,984.89
2023-01-08T08:05:58.766Z,984.97
2023-01-08T08:06:58.739Z,984.96
2023-01-08T08:07:58.655Z,984.94
2023-01-08T08:08:58.567Z,984.82
2023-01-08T08:09:58.523Z,984.82
2023-01-08T08:10:58.472Z,984.74
2023-01-08T08:11:58.436Z,984.78
2023-01-08T08:12:58.311Z,984.73
2023-01-08T08:15:59.600Z,984.78
2023-01-08T08:17:00.556Z,984.79
2023-01-08T08:18:00.417Z,984.75
2023-01-08T08:19:00.404Z,984.78
2023-01-08T08:20:00.394Z,984.89
2023-01-08T08:21:00.221Z,984.85
2023-01-08T08:22:00.194Z,984.85
2023-01-08T08:23:00.117Z,984.87
2023-01-08T08:24:00.140Z,984.82
2023-01-08T08:25:00.033Z,984.84
2023-01-08T08:26:00.009Z,984.82
2023-01-08T08:26:59.850Z,984.80
2023-01-08T08:27:59.830Z,984.85
2023-01-08T08:28:59.775Z,984.82
2023-01-08T08:29:59.650Z,984.86
2023-01-08T08:30:59.724Z,984.84
2023-01-08T08:31:59.576Z,984.82
2023-01-08T08:32:59.476Z,984.78
2023-01-08T08:33:59.398Z,984.78
2023-01-08T08:34:59.399Z,984.82
2023-01-08T08:35:59.291Z,984.86
2023-01-08T08:38:38.227Z,984.84
2023-01-08T08:39:39.210Z,984.79
2023-01-08T08:40:39.074Z,984.76
2023-01-08T08:41:39.050Z,984.74
2023-01-08T08:42:38.945Z,984.72
2023-01-08T08:43:38.898Z,984.77
2023-01-08T08:44:40.282Z,984.74
2023-01-08T08:45:38.791Z,984.78
2023-01-08T08:46:38.758Z,984.75
2023-01-08T08:47:38.632Z,984.80
2023-01-08T08:48:38.552Z,984.78
2023-01-08T08:49:38.565Z,984.78
2023-01-08T08:50:38.510Z,984.75
2023-01-08T08:51:38.421Z,984.67
2023-01-08T08:52:38.392Z,984.69
2023-01-08T08:53:38.274Z,984.65
2023-01-08T08:54:38.219Z,984.62
2023-01-08T08:57:18.068Z,984.56
2023-01-08T08:58:19.028Z,984.57
2023-01-08T08:59:18.919Z,984.59
2023-01-08T09:00:18.810Z,984.72
2023-01-08T09:01:18.925Z,984.76
2023-01-08T09:02:19.010Z,984.78
2023-01-08T09:03:18.870Z,984.74
2023-01-08T09:04:18.614Z,984.73
2023-01-08T09:05:18.523Z,984.76
2023-01-08T09:06:18.447Z,984.80
2023-01-08T09:07:18.397Z,984.78
2023-01-08T09:08:18.389Z,984.80
2023-01-08T09:09:18.310Z,984.80
2023-01-08T09:10:18.272Z,984.75
2023-01-08T09:11:18.137Z,984.69
2023-01-08T09:12:18.099Z,984.68
2023-01-08T09:13:18.079Z,984.70
2023-01-08T09:14:18.001Z,984.71
2023-01-08T09:15:17.916Z,984.69
2023-01-08T09:16:17.935Z,984.69
2023-01-08T09:17:17.785Z,984.70
2023-01-08T09:18:17.718Z,984.70
2023-01-08T09:19:17.711Z,984.66
2023-01-08T09:20:17.563Z,984.63
2023-01-08T09:21:17.576Z,984.68
2023-01-08T09:22:17.481Z,984.67
2023-01-08T09:23:17.444Z,984.66
2023-01-08T09:24:17.326Z,984.62
2023-01-08T09:25:17.281Z,984.67
2023-01-08T09:26:17.237Z,984.74
2023-01-08T09:27:17.190Z,984.76
2023-01-08T09:28:17.094Z,984.75
2023-01-08T09:29:17.056Z,984.77
2023-01-08T09:30:16.910Z,984.75
2023-01-08T09:31:16.991Z,984.77
2023-01-08T09:32:16.850Z,984.78
2023-01-08T09:33:16.797Z,984.73
2023-01-08T09:34:16.674Z,984.69
2023-01-08T09:35:16.628Z,984.71
2023-01-08T09:36:16.591Z,984.67
2023-01-08T09:37:16.516Z,984.75
2023-01-08T09:38:16.480Z,984.74
2023-01-08T09:39:16.413Z,984.72
2023-01-08T09:40:16.302Z,984.69
2023-01-08T09:41:16.263Z,984.71
2023-01-08T09:42:16.175Z,984.69
2023-01-08T09:43:16.101Z,984.69
2023-01-08T09:44:16.116Z,984.72
2023-01-08T09:45:16.016Z,984.69
2023-01-08T09:46:16.099Z,984.66
2023-01-08T09:47:15.847Z,984.67
2023-01-08T09:48:15.819Z,984.71
2023-01-08T09:49:15.761Z,984.66
2023-01-08T09:50:36.691Z,984.67
2023-01-08T09:51:15.670Z,984.69
2023-01-08T09:52:15.528Z,984.72
2023-01-08T09:53:15.533Z,984.81
2023-01-08T09:54:15.432Z,984.77
2023-01-08T09:55:15.378Z,984.79
2023-01-08T09:56:15.319Z,984.76
2023-01-08T09:57:15.197Z,984.79
2023-01-08T09:58:15.157Z,984.71
2023-01-08T09:59:15.115Z,984.82
2023-01-08T10:00:15.097Z,984.79
2023-01-08T10:01:15.189Z,984.74
2023-01-08T10:02:15.102Z,984.73
2023-01-08T10:03:14.882Z,984.75
2023-01-08T10:04:14.839Z,984.66
2023-01-08T10:05:14.709Z,984.68
2023-01-08T10:06:14.697Z,984.70
2023-01-08T10:07:14.654Z,984.73
2023-01-08T10:08:35.577Z,984.72
2023-01-08T10:09:14.450Z,984.66
2023-01-08T10:10:14.413Z,984.73
2023-01-08T10:11:14.367Z,984.71
2023-01-08T10:12:14.284Z,984.71
2023-01-08T10:13:14.231Z,984.72
2023-01-08T10:14:15.022Z,984.71
2023-01-08T10:15:14.116Z,984.67
2023-01-08T10:16:14.107Z,984.68
2023-01-08T10:17:13.962Z,984.62
2023-01-08T10:18:13.949Z,984.68
2023-01-08T10:19:13.831Z,984.67
2023-01-08T10:20:14.091Z,984.64
2023-01-08T10:21:13.695Z,984.63
2023-01-08T10:22:13.691Z,984.58
2023-01-08T10:23:13.648Z,984.56
2023-01-08T10:24:13.504Z,984.51
2023-01-08T10:25:13.443Z,984.55
2023-01-08T10:26:13.414Z,984.44
2023-01-08T10:27:13.315Z,984.52
2023-01-08T10:28:13.310Z,984.43
2023-01-08T10:29:14.019Z,984.41
2023-01-08T10:30:13.191Z,984.43
2023-01-08T10:31:13.163Z,984.45
2023-01-08T10:32:13.045Z,984.42
2023-01-08T10:33:13.503Z,984.40
2023-01-08T10:34:12.906Z,984.39
2023-01-08T10:35:12.840Z,984.39
2023-01-08T10:36:12.773Z,984.36
2023-01-08T10:37:12.694Z,984.42
2023-01-08T10:38:12.636Z,984.39
2023-01-08T10:39:12.593Z,984.39
2023-01-08T10:40:12.514Z,984.32
2023-01-08T10:41:12.491Z,984.31
2023-01-08T10:42:12.396Z,984.30
2023-01-08T10:43:12.332Z,984.29
2023-01-08T10:44:12.277Z,984.25
2023-01-08T10:45:12.185Z,984.23
2023-01-08T10:46:12.279Z,984.18
2023-01-08T10:47:12.042Z,984.18
2023-01-08T10:48:11.990Z,984.12
2023-01-08T10:49:11.955Z,984.14
2023-01-08T10:50:11.916Z,984.08
2023-01-08T10:51:11.805Z,984.09
2023-01-08T10:52:11.760Z,984.12
2023-01-08T10:53:11.727Z,984.15
2023-01-08T10:54:11.599Z,984.12
2023-01-08T10:55:11.545Z,984.10
2023-01-08T10:56:11.514Z,984.11
2023-01-08T10:57:11.421Z,984.10
2023-01-08T10:58:11.328Z,984.09
2023-01-08T10:59:11.345Z,984.07
2023-01-08T11:00:11.203Z,984.05
2023-01-08T11:01:11.323Z,984.09
2023-01-08T11:02:32.335Z,984.07
2023-01-08T11:03:11.032Z,984.06
2023-01-08T11:04:10.963Z,984.00
2023-01-08T11:05:10.931Z,984.01
2023-01-08T11:06:10.848Z,983.98
2023-01-08T11:07:11.436Z,984.06
2023-01-08T11:08:10.782Z,983.99
2023-01-08T11:09:10.642Z,984.01
2023-01-08T11:10:10.607Z,983.97
2023-01-08T11:11:10.528Z,983.98
2023-01-08T11:12:10.495Z,984.00
2023-01-08T11:13:10.445Z,984.00
2023-01-08T11:14:10.403Z,983.97
2023-01-08T11:15:10.335Z,983.95
2023-01-08T11:16:10.260Z,983.99
2023-01-08T11:17:10.229Z,983.99
2023-01-08T11:18:10.155Z,983.89
2023-01-08T11:19:10.056Z,983.89
2023-01-08T11:20:10.040Z,983.94
2023-01-08T11:21:09.918Z,983.87
2023-01-08T11:22:09.848Z,983.87
2023-01-08T11:23:09.753Z,983.87
2023-01-08T11:24:09.702Z,983.91
2023-01-08T11:25:09.666Z,983.88
2023-01-08T11:26:09.689Z,983.91
2023-01-08T11:27:09.528Z,983.86
2023-01-08T11:28:09.478Z,983.88
2023-01-08T11:29:09.387Z,983.84
2023-01-08T11:30:09.374Z,983.79
2023-01-08T11:31:09.265Z,983.81
2023-01-08T11:32:09.235Z,983.81
2023-01-08T11:33:09.194Z,983.80
2023-01-08T11:34:09.103Z,983.78
2023-01-08T11:35:08.981Z,983.82
2023-01-08T11:36:08.970Z,983.76
2023-01-08T11:37:08.909Z,983.69
2023-01-08T11:38:08.844Z,983.72
2023-01-08T11:39:08.793Z,983.70
2023-01-08T11:40:08.720Z,983.67
2023-01-08T11:41:08.634Z,983.66
2023-01-08T11:42:08.641Z,983.62
2023-01-08T11:43:08.502Z,983.61
2023-01-08T11:44:08.447Z,983.59
2023-01-08T11:45:08.412Z,983.55
2023-01-08T11:46:08.306Z,983.53
2023-01-08T11:47:08.235Z,983.54
2023-01-08T11:48:08.153Z,983.59
2023-01-08T11:49:08.119Z,983.52
2023-01-08T11:50:08.145Z,983.60
2023-01-08T11:51:08.060Z,983.54
2023-01-08T11:52:07.921Z,983.54
2023-01-08T11:53:07.844Z,983.56
2023-01-08T11:54:07.768Z,983.49
2023-01-08T11:55:07.758Z,983.47
2023-01-08T11:56:07.687Z,983.49
2023-01-08T11:57:07.639Z,983.47
2023-01-08T11:58:07.528Z,983.43
2023-01-08T11:59:07.556Z,983.42
2023-01-08T12:00:07.495Z,983.47
2023-01-08T12:01:07.345Z,983.32
2023-01-08T12:02:07.336Z,983.41
2023-01-08T12:03:07.278Z,983.41
2023-01-08T12:04:07.171Z,983.32
2023-01-08T12:05:07.140Z,983.31
2023-01-08T12:06:07.036Z,983.27
2023-01-08T12:07:07.052Z,983.30
2023-01-08T12:08:07.218Z,983.27
2023-01-08T12:09:06.882Z,983.29
2023-01-08T12:10:06.758Z,983.30
2023-01-08T12:11:06.717Z,983.24
2023-01-08T12:12:06.659Z,983.25
2023-01-08T12:13:06.615Z,983.15
2023-01-08T12:14:06.602Z,983.13
2023-01-08T12:15:06.565Z,983.04
2023-01-08T12:16:06.452Z,983.01
2023-01-08T12:17:06.361Z,983.08
2023-01-08T12:18:06.289Z,983.01
2023-01-08T12:19:06.251Z,983.08
2023-01-08T12:20:06.157Z,983.00
2023-01-08T12:21:06.086Z,983.02
2023-01-08T12:22:06.983Z,982.99
2023-01-08T12:23:05.996Z,983.02
2023-01-08T12:24:05.964Z,983.01
2023-01-08T12:25:05.817Z,982.94
2023-01-08T12:26:06.123Z,982.94
2023-01-08T12:27:05.704Z,982.92
2023-01-08T12:28:05.669Z,982.96
2023-01-08T12:29:05.575Z,983.02
2023-01-08T12:30:05.515Z,982.97
2023-01-08T12:31:05.486Z,983.00
2023-01-08T12:33:14.597Z,983.00
2023-01-08T12:34:15.507Z,983.02
2023-01-08T12:35:15.487Z,982.95
2023-01-08T12:36:15.384Z,982.95
2023-01-08T12:37:15.298Z,982.97
2023-01-08T12:38:15.289Z,982.95
2023-01-08T12:39:15.211Z,982.91
2023-01-08T12:40:15.143Z,982.88
2023-01-08T12:41:15.053Z,982.86
2023-01-08T12:42:15.040Z,982.91
2023-01-08T12:43:14.954Z,982.86
2023-01-08T12:44:14.898Z,982.86
2023-01-08T12:45:14.839Z,982.84
2023-01-08T12:46:14.892Z,982.86
2023-01-08T12:47:14.717Z,982.86
2023-01-08T12:48:14.638Z,982.81
2023-01-08T12:49:14.556Z,982.80
2023-01-08T12:50:14.530Z,982.87